Time;durP1;ratioP1;P1;durP2;ratioP2;P2;SDS_P1;SDS_P2;PMS_P1;PMS_P2;Temp;Humidity;BMP_temperature;BMP_pressure;BME280_temperature;BME280_humidity;BME280_pressure;Samples;Min_cycle;Max_cycle;Signal;HPM_P1;HPM_P2
2022/08/07 00:01:39;;;;;;;9.57;7.47;;;;;;;27.98;43.86;99089.41;5031542;28;20083;-76
2022/08/07 00:04:06;;;;;;;8.50;7.53;;;;;;;27.89;43.83;99082.28;5031572;28;20501;-77
2022/08/07 00:06:32;;;;;;;8.20;7.25;;;;;;;27.88;43.80;99095.03;5031694;28;20040;-77
2022/08/07 00:08:57;;;;;;;9.20;7.35;;;;;;;27.84;43.94;99092.13;5030238;28;20029;-77
2022/08/07 00:11:22;;;;;;;8.07;7.38;;;;;;;27.83;43.86;99093.22;5030411;28;20052;-77
2022/08/07 00:13:48;;;;;;;8.52;7.82;;;;;;;27.78;43.95;99087.09;5030187;28;20493;-77
2022/08/07 00:16:14;;;;;;;8.82;7.80;;;;;;;27.74;43.99;99088.81;5031422;28;20108;-77
2022/08/07 00:18:39;;;;;;;8.65;7.68;;;;;;;27.30;44.28;99035.91;5031490;28;20041;-77
2022/08/07 00:21:07;;;;;;;9.18;7.72;;;;;;;27.67;44.24;99082.97;5029992;28;20087;-76
2022/08/07 00:23:34;;;;;;;9.57;7.63;;;;;;;27.67;44.22;99085.69;5029394;28;20465;-77
2022/08/07 00:26:02;;;;;;;9.25;8.27;;;;;;;27.60;44.21;99083.34;5031450;28;20048;-77
2022/08/07 00:28:29;;;;;;;8.77;7.85;;;;;;;27.53;44.56;99080.25;5031365;28;20387;-77
2022/08/07 00:30:54;;;;;;;8.82;7.55;;;;;;;27.49;44.66;99087.34;5030103;28;20079;-77
2022/08/07 00:33:25;;;;;;;8.48;7.68;;;;;;;27.44;44.62;99079.28;5031363;28;20029;-77
2022/08/07 00:35:54;;;;;;;8.90;7.90;;;;;;;27.42;44.68;99068.75;5031243;28;20518;-77
2022/08/07 00:38:20;;;;;;;9.35;8.20;;;;;;;27.44;44.75;99076.59;5031139;28;20036;-77
2022/08/07 00:40:46;;;;;;;8.32;7.63;;;;;;;27.16;44.75;99041.31;5031366;28;20021;-77
2022/08/07 00:43:12;;;;;;;8.82;8.05;;;;;;;27.39;44.79;99068.56;5031223;28;20388;-77
2022/08/07 00:45:39;;;;;;;9.30;8.38;;;;;;;27.07;44.84;99040.41;5031270;28;20028;-77
2022/08/07 00:48:05;;;;;;;8.93;8.07;;;;;;;27.26;45.00;99072.06;5031241;28;20045;-77
2022/08/07 00:50:31;;;;;;;9.13;8.38;;;;;;;27.13;45.18;99063.59;5031256;28;20048;-77
2022/08/07 00:52:57;;;;;;;8.85;7.95;;;;;;;27.16;45.47;99070.31;5031124;28;20026;-77
2022/08/07 00:55:22;;;;;;;8.32;7.63;;;;;;;27.12;45.40;99064.69;5031101;28;20022;-77
2022/08/07 00:57:47;;;;;;;8.55;7.75;;;;;;;27.09;45.42;99068.00;5030878;28;20113;-77
2022/08/07 01:00:14;;;;;;;8.85;8.10;;;;;;;27.09;45.50;99069.91;5031019;28;20022;-77
2022/08/07 01:02:41;;;;;;;10.50;8.90;;;;;;;26.54;45.42;98991.16;5029693;28;20461;-77
2022/08/07 01:05:08;;;;;;;8.93;8.05;;;;;;;27.06;45.77;99082.16;5031081;28;20056;-77
2022/08/07 01:07:34;;;;;;;8.50;7.78;;;;;;;27.08;45.70;99076.44;5030922;28;20665;-77
2022/08/07 01:10:00;;;;;;;9.50;8.60;;;;;;;26.80;45.73;99030.28;5030870;28;20135;-77
2022/08/07 01:12:27;;;;;;;8.57;7.78;;;;;;;26.98;45.83;99060.34;5030720;28;20053;-77
2022/08/07 01:14:53;;;;;;;8.52;7.82;;;;;;;26.94;45.96;99067.44;5030760;28;20433;-77
2022/08/07 01:17:18;;;;;;;8.10;7.30;;;;;;;26.88;46.14;99058.59;5030787;28;20053;-77
2022/08/07 01:19:44;;;;;;;8.75;7.95;;;;;;;26.88;46.20;99061.31;5031010;28;20071;-77
2022/08/07 01:22:10;;;;;;;9.02;8.23;;;;;;;26.87;46.34;99051.56;5030842;28;20029;-77
2022/08/07 01:24:36;;;;;;;9.63;8.70;;;;;;;26.42;46.49;98985.41;5030785;28;20029;-77
2022/08/07 01:27:02;;;;;;;9.30;8.40;;;;;;;26.85;46.39;99051.06;5030815;28;20033;-77
2022/08/07 01:29:29;;;;;;;8.93;8.02;;;;;;;26.85;46.41;99059.19;5029491;28;20018;-77
2022/08/07 01:31:55;;;;;;;9.25;8.32;;;;;;;26.70;46.59;99033.13;5029470;28;20417;-77
2022/08/07 01:34:20;;;;;;;9.30;8.40;;;;;;;26.82;46.62;99059.78;5031515;28;20030;-77
2022/08/07 01:36:48;;;;;;;9.32;8.20;;;;;;;26.84;46.45;99060.28;5034326;28;20040;-76
2022/08/07 01:39:14;;;;;;;10.10;8.88;;;;;;;26.60;46.32;99017.84;5034297;28;20021;-77
2022/08/07 01:41:42;;;;;;;9.60;8.57;;;;;;;26.46;46.52;98984.50;5034216;28;20036;-77
2022/08/07 01:44:09;;;;;;;9.32;8.43;;;;;;;26.89;46.56;99057.50;5034230;28;20029;-77
2022/08/07 01:46:35;;;;;;;9.88;8.95;;;;;;;26.75;46.47;99037.66;5032743;28;20040;-76
2022/08/07 01:49:01;;;;;;;9.18;8.45;;;;;;;26.87;46.75;99056.97;5033905;28;20102;-77
2022/08/07 01:51:28;;;;;;;9.32;8.40;;;;;;;26.87;46.50;99056.97;5033992;28;20031;-77
2022/08/07 01:53:56;;;;;;;9.75;8.95;;;;;;;26.83;46.84;99053.25;5033872;28;20021;-77
2022/08/07 01:56:44;;;;;;;9.30;8.25;;;;;;;26.76;46.70;99061.78;5033947;28;20029;-77
2022/08/07 01:59:42;;;;;;;9.25;8.45;;;;;;;26.66;47.11;99050.25;5033796;28;20494;-77
2022/08/07 02:02:16;;;;;;;8.82;8.13;;;;;;;26.13;46.97;98994.47;5027097;28;20033;-76
2022/08/07 02:04:50;;;;;;;10.07;9.07;;;;;;;26.40;47.36;99045.25;5033835;28;20029;-77
2022/08/07 02:07:17;;;;;;;9.50;8.60;;;;;;;26.46;47.30;99057.63;5033742;28;20045;-76
2022/08/07 02:09:45;;;;;;;9.88;8.88;;;;;;;26.14;47.58;99015.03;5032538;28;20036;-76
2022/08/07 02:12:16;;;;;;;9.80;8.95;;;;;;;26.14;47.61;99017.72;5033811;28;20039;-77
2022/08/07 02:14:47;;;;;;;10.60;9.27;;;;;;;26.46;47.48;99048.69;5033621;28;20479;-77
2022/08/07 02:17:14;;;;;;;9.65;8.85;;;;;;;26.44;47.54;99048.19;5033417;28;20125;-77
2022/08/07 02:19:42;;;;;;;10.75;8.57;;;;;;;26.42;47.52;99039.53;5032306;28;20116;-77
2022/08/07 02:22:11;;;;;;;9.63;8.73;;;;;;;26.07;47.74;98995.66;5033369;28;20487;-77
2022/08/07 02:24:37;;;;;;;11.43;8.15;;;;;;;26.28;47.59;99036.75;5033452;28;20053;-77
2022/08/07 02:27:04;;;;;;;10.20;9.35;;;;;;;26.33;47.69;99055.66;5033527;28;20037;-77
2022/08/07 02:29:31;;;;;;;9.60;8.80;;;;;;;25.84;47.90;98997.28;5033577;28;20033;-77
2022/08/07 02:31:59;;;;;;;10.93;8.85;;;;;;;26.03;47.83;99029.00;5033559;28;20486;-76
2022/08/07 02:34:24;;;;;;;10.52;9.55;;;;;;;26.14;48.21;99055.63;5033277;28;20029;-77
2022/08/07 02:36:51;;;;;;;10.25;9.27;;;;;;;26.03;48.57;99048.72;5033365;28;20417;-77
2022/08/07 02:39:17;;;;;;;9.98;8.98;;;;;;;25.84;48.48;99024.34;5033223;28;20079;-77
2022/08/07 02:41:44;;;;;;;9.63;8.82;;;;;;;26.05;48.59;99053.84;5033050;28;20061;-77
2022/08/07 02:44:12;;;;;;;10.35;9.48;;;;;;;25.88;48.48;99030.78;5033126;28;20414;-77
2022/08/07 02:46:38;;;;;;;10.05;9.15;;;;;;;26.05;48.29;99045.72;5031333;28;20461;-77
2022/08/07 02:49:04;;;;;;;10.27;9.25;;;;;;;26.14;48.44;99060.22;5033007;28;20029;-77
2022/08/07 02:51:33;;;;;;;10.32;9.32;;;;;;;26.07;48.56;99066.00;5033060;28;20542;-77
2022/08/07 02:54:01;;;;;;;9.13;8.32;;;;;;;26.11;48.47;99055.41;5032968;28;20025;-77
2022/08/07 02:56:30;;;;;;;9.57;8.68;;;;;;;26.09;48.59;99063.81;5031385;28;20482;-77
2022/08/07 02:59:00;;;;;;;11.77;9.57;;;;;;;25.89;48.73;99028.88;5031365;28;20055;-77
2022/08/07 03:01:26;;;;;;;10.60;9.43;;;;;;;25.87;48.74;99041.88;5031397;28;20198;-76
2022/08/07 03:03:55;;;;;;;9.93;9.02;;;;;;;26.09;48.59;99066.50;5032619;28;20108;-77
2022/08/07 03:06:22;;;;;;;10.20;9.02;;;;;;;26.09;48.47;99063.00;5032589;28;20417;-77
2022/08/07 03:08:48;;;;;;;9.70;8.80;;;;;;;26.14;48.86;99060.22;5032469;28;20029;-76
2022/08/07 03:11:14;;;;;;;10.75;9.65;;;;;;;26.18;48.73;99067.47;5032640;28;20033;-76
2022/08/07 03:13:41;;;;;;;10.50;9.50;;;;;;;25.81;48.59;99003.28;5032578;28;20034;-76
2022/08/07 03:16:06;;;;;;;10.52;9.55;;;;;;;26.17;48.73;99073.16;5032442;28;20033;-76
2022/08/07 03:18:32;;;;;;;10.27;9.27;;;;;;;26.19;48.71;99079.91;5031083;28;20053;-76
2022/08/07 03:20:58;;;;;;;11.05;10.05;;;;;;;25.96;48.74;99040.94;5032438;28;20025;-77
2022/08/07 03:23:26;;;;;;;10.90;9.90;;;;;;;25.84;48.95;99027.03;5032474;28;20108;-77
2022/08/07 03:25:53;;;;;;;11.25;9.40;;;;;;;25.90;48.95;99036.69;5032307;28;20031;-76
2022/08/07 03:28:19;;;;;;;10.95;9.85;;;;;;;26.04;48.90;99058.47;5032344;28;20395;-76
2022/08/07 03:30:45;;;;;;;10.77;9.88;;;;;;;26.25;48.89;99088.75;5032203;28;20040;-77
2022/08/07 03:33:13;;;;;;;10.30;9.40;;;;;;;26.16;48.97;99068.84;5032452;28;20118;-76
2022/08/07 03:35:40;;;;;;;10.48;9.43;;;;;;;26.13;48.97;99058.63;5030963;28;20104;-77
2022/08/07 03:38:08;;;;;;;14.70;10.23;;;;;;;26.24;49.04;99090.66;5032148;28;20037;-77
2022/08/07 03:40:34;;;;;;;12.05;10.93;;;;;;;25.87;49.14;99045.41;5032095;28;20483;-77
2022/08/07 03:43:01;;;;;;;10.68;9.70;;;;;;;25.72;49.65;99042.88;5031973;28;20061;-77
2022/08/07 03:45:28;;;;;;;10.82;9.82;;;;;;;25.70;49.63;99047.78;5031986;28;20505;-77
2022/08/07 03:47:55;;;;;;;10.95;9.85;;;;;;;26.06;49.74;99101.47;5031801;28;20040;-77
2022/08/07 03:50:23;;;;;;;11.50;10.40;;;;;;;26.01;49.92;99110.44;5031933;28;20029;-77
2022/08/07 03:52:50;;;;;;;11.82;10.65;;;;;;;26.02;49.99;99090.41;5031910;28;20029;-77
2022/08/07 03:55:16;;;;;;;11.40;10.25;;;;;;;25.57;49.82;99026.81;5030459;28;20034;-76
2022/08/07 03:57:42;;;;;;;11.68;10.57;;;;;;;25.70;49.91;99036.97;5031165;28;20087;-76
2022/08/07 04:00:08;;;;;;;11.85;10.65;;;;;;;25.87;50.08;99067.03;5031705;28;20040;-77
2022/08/07 04:02:34;;;;;;;10.90;9.90;;;;;;;25.99;50.36;99093.66;5030366;28;20021;-77
2022/08/07 04:05:00;;;;;;;11.77;10.68;;;;;;;26.10;50.15;99105.19;5031467;28;20033;-77
2022/08/07 04:07:25;;;;;;;12.57;10.57;;;;;;;26.14;50.20;99107.03;5031342;28;20028;-76
2022/08/07 04:09:52;;;;;;;11.32;10.32;;;;;;;26.04;50.04;99088.22;5031378;28;20021;-76
2022/08/07 04:12:17;;;;;;;11.57;10.30;;;;;;;26.23;50.21;99113.41;5030178;28;20025;-76
2022/08/07 04:14:44;;;;;;;12.55;10.63;;;;;;;26.29;50.15;99117.66;5031295;28;20031;-76
2022/08/07 04:17:10;;;;;;;12.45;11.15;;;;;;;25.68;50.14;99017.53;5031222;28;20510;-77
2022/08/07 04:19:39;;;;;;;11.93;10.93;;;;;;;26.04;50.19;99071.19;5030027;28;20033;-77
2022/08/07 04:22:05;;;;;;;12.93;11.80;;;;;;;26.01;50.20;99056.34;5031582;28;20171;-77
2022/08/07 04:24:32;;;;;;;12.57;11.48;;;;;;;26.10;50.20;99076.22;5032143;28;20057;-77
2022/08/07 04:26:58;;;;;;;12.07;11.05;;;;;;;26.10;50.20;99078.13;5031318;28;20473;-77
2022/08/07 04:29:24;;;;;;;12.00;10.95;;;;;;;26.37;50.19;99112.72;5031335;28;20033;-77
2022/08/07 04:31:49;;;;;;;11.75;10.65;;;;;;;26.28;50.07;99105.22;5029973;28;20513;-77
2022/08/07 04:34:16;;;;;;;11.40;10.40;;;;;;;26.39;50.16;99129.47;5031158;28;20541;-77
2022/08/07 04:36:42;;;;;;;11.48;10.38;;;;;;;26.35;50.17;99109.50;5031365;28;20056;-77
2022/08/07 04:39:08;;;;;;;11.18;10.18;;;;;;;26.45;50.17;99131.81;5030095;28;20029;-77
2022/08/07 04:41:33;;;;;;;11.20;10.20;;;;;;;25.99;50.32;99058.50;5031392;28;20581;-77
2022/08/07 04:44:00;;;;;;;12.40;11.25;;;;;;;26.49;50.21;99127.41;5031445;28;20096;-77
2022/08/07 04:46:28;;;;;;;11.82;10.63;;;;;;;26.49;50.38;99132.03;5031245;28;20029;-77
2022/08/07 04:49:14;;;;;;;11.23;10.32;;;;;;;26.56;50.39;99129.75;5031075;28;20534;-76
2022/08/07 04:51:54;;;;;;;11.60;10.52;;;;;;;26.56;50.16;99127.84;5031228;28;20026;-77
2022/08/07 04:54:23;;;;;;;11.55;10.45;;;;;;;26.59;49.95;99131.88;5029815;28;20060;-76
2022/08/07 04:56:56;;;;;;;11.73;10.75;;;;;;;26.65;50.12;99135.31;5029820;28;20043;-77
2022/08/07 04:59:57;;;;;;;10.77;9.70;;;;;;;26.64;50.45;99136.41;5029814;28;20504;-77
2022/08/07 05:02:41;;;;;;;10.18;9.20;;;;;;;26.68;50.00;99145.56;5031045;28;20064;-77
2022/08/07 05:05:28;;;;;;;11.35;10.15;;;;;;;26.66;50.06;99142.34;5031184;28;20044;-77
2022/08/07 05:08:01;;;;;;;10.45;9.48;;;;;;;26.60;50.01;99139.72;5029739;28;20025;-77
2022/08/07 05:10:36;;;;;;;10.70;9.80;;;;;;;26.27;50.02;99078.44;5034956;28;20391;-77
2022/08/07 05:13:26;;;;;;;13.65;10.40;;;;;;;26.73;50.01;99143.59;5034786;28;20036;-77
2022/08/07 05:15:53;;;;;;;11.17;10.17;;;;;;;26.78;49.86;99140.03;5033654;28;20416;-76
2022/08/07 05:18:24;;;;;;;10.95;9.88;;;;;;;26.87;49.66;99147.19;5033452;28;20286;-77
2022/08/07 05:20:53;;;;;;;11.50;10.33;;;;;;;26.96;49.50;99147.31;5033514;28;20375;-76
2022/08/07 05:23:27;;;;;;;11.25;10.27;;;;;;;26.46;49.41;99073.84;5034622;28;20676;-77
2022/08/07 05:25:53;;;;;;;11.80;10.63;;;;;;;26.62;49.06;99104.22;5034547;28;20104;-77
2022/08/07 05:28:20;;;;;;;11.15;10.05;;;;;;;26.61;49.20;99110.72;5034324;28;20031;-76
2022/08/07 05:30:46;;;;;;;11.35;10.35;;;;;;;26.60;48.94;99092.88;5034378;28;20513;-76
2022/08/07 05:33:13;;;;;;;12.32;10.65;;;;;;;27.10;48.77;99158.25;5034327;28;20029;-76
2022/08/07 05:35:41;;;;;;;11.75;10.55;;;;;;;27.12;48.66;99162.25;5034641;28;20510;-76
2022/08/07 05:38:07;;;;;;;15.35;13.75;;;;;;;26.94;48.39;99133.25;5034250;28;20138;-76
2022/08/07 05:40:37;;;;;;;12.45;11.23;;;;;;;27.20;48.53;99166.19;5034358;28;20021;-76
2022/08/07 05:43:03;;;;;;;10.95;9.95;;;;;;;27.19;48.47;99165.41;5033031;28;20031;-77
2022/08/07 05:45:29;;;;;;;11.40;10.30;;;;;;;27.00;48.48;99129.41;5032822;28;20025;-77
2022/08/07 05:47:55;;;;;;;12.30;10.82;;;;;;;26.99;48.56;99137.81;5034015;28;20113;-76
2022/08/07 05:50:22;;;;;;;12.55;10.15;;;;;;;26.87;48.55;99117.38;5034010;28;20029;-77
2022/08/07 05:52:48;;;;;;;13.23;11.90;;;;;;;27.28;48.32;99170.94;5032899;28;20399;-76
2022/08/07 05:55:14;;;;;;;12.30;11.05;;;;;;;27.27;48.31;99158.50;5034047;28;20036;-77
2022/08/07 05:57:41;;;;;;;11.30;10.30;;;;;;;27.38;48.14;99178.09;5032843;28;20029;-77
2022/08/07 06:00:09;;;;;;;12.18;10.40;;;;;;;27.43;47.91;99176.09;5034159;28;20025;-77
2022/08/07 06:02:35;;;;;;;12.60;11.35;;;;;;;27.45;47.96;99170.38;5033892;28;20498;-77
2022/08/07 06:05:08;;;;;;;10.55;9.55;;;;;;;27.44;47.75;99179.63;5033731;28;20095;-77
2022/08/07 06:07:34;;;;;;;12.00;10.88;;;;;;;27.45;47.83;99192.88;5034136;28;20124;-76
2022/08/07 06:10:00;;;;;;;12.27;11.05;;;;;;;26.99;47.83;99125.09;5032575;28;20112;-76
2022/08/07 06:12:26;;;;;;;12.63;11.32;;;;;;;27.41;47.67;99174.78;5033723;28;20025;-76
2022/08/07 06:14:53;;;;;;;11.25;10.25;;;;;;;27.42;47.60;99165.56;5033646;28;20049;-76
2022/08/07 06:17:19;;;;;;;13.18;11.88;;;;;;;27.36;47.58;99147.78;5033610;28;20076;-76
2022/08/07 06:19:46;;;;;;;13.25;11.90;;;;;;;27.63;47.34;99183.13;5033160;28;20095;-76
2022/08/07 06:22:13;;;;;;;12.07;10.82;;;;;;;27.33;47.23;99134.81;5033395;28;20449;-76
2022/08/07 06:24:39;;;;;;;12.45;10.63;;;;;;;27.72;47.00;99183.25;5033521;28;20032;-76
2022/08/07 06:27:05;;;;;;;12.15;11.05;;;;;;;27.47;47.06;99138.34;5032116;28;20029;-76
2022/08/07 06:29:30;;;;;;;11.82;10.73;;;;;;;27.52;46.70;99130.97;5033353;28;20018;-76
2022/08/07 06:31:56;;;;;;;11.95;10.75;;;;;;;27.96;46.90;99189.31;5033380;28;20513;-76
2022/08/07 06:34:25;;;;;;;11.70;10.50;;;;;;;27.58;46.27;99120.00;5031923;28;20032;-76
2022/08/07 06:36:51;;;;;;;10.40;9.32;;;;;;;28.04;46.11;99183.16;5033247;28;20115;-76
2022/08/07 06:39:16;;;;;;;10.95;9.85;;;;;;;28.08;45.91;99184.19;5033134;28;20086;-76
2022/08/07 06:41:46;;;;;;;10.02;9.13;;;;;;;27.69;45.79;99116.84;5033144;28;20025;-76
2022/08/07 06:44:13;;;;;;;9.80;8.98;;;;;;;28.20;45.60;99175.53;5033128;28;20017;-76
2022/08/07 06:46:40;;;;;;;10.25;9.27;;;;;;;28.13;45.16;99151.50;5031851;28;20029;-76
2022/08/07 06:49:06;;;;;;;9.88;9.00;;;;;;;28.33;44.92;99174.75;5033041;28;20486;-76
2022/08/07 06:51:33;;;;;;;9.55;8.75;;;;;;;28.36;44.55;99176.88;5031737;28;20144;-76
2022/08/07 06:54:03;;;;;;;10.25;8.50;;;;;;;28.43;44.55;99184.59;5032946;28;20030;-76
2022/08/07 06:56:39;;;;;;;10.65;8.57;;;;;;;28.11;44.08;99121.13;5032953;28;20053;-76
2022/08/07 06:59:12;;;;;;;9.48;8.57;;;;;;;28.57;43.56;99184.56;5032912;28;20025;-76
2022/08/07 07:01:40;;;;;;;8.98;8.10;;;;;;;28.65;43.77;99189.28;5032629;28;20484;-76
2022/08/07 07:04:06;;;;;;;9.02;8.18;;;;;;;28.67;43.36;99196.03;5032542;28;20497;-77
2022/08/07 07:06:32;;;;;;;9.75;8.90;;;;;;;28.62;43.40;99179.03;5032775;28;20025;-76
2022/08/07 07:09:19;;;;;;;9.45;8.55;;;;;;;28.75;42.80;99186.34;5032615;28;20065;-76
2022/08/07 07:11:54;;;;;;;9.38;8.45;;;;;;;28.79;42.94;99187.34;5032639;28;20486;-76
2022/08/07 07:14:23;;;;;;;10.63;9.63;;;;;;;28.79;42.97;99193.56;5032557;28;20030;-76
2022/08/07 07:16:52;;;;;;;9.90;9.00;;;;;;;28.90;42.57;99193.38;5032381;28;20052;-76
2022/08/07 07:19:26;;;;;;;9.55;8.68;;;;;;;28.92;42.54;99191.16;5032621;28;20030;-76
2022/08/07 07:21:54;;;;;;;10.50;9.52;;;;;;;28.99;42.49;99197.00;5032359;28;20041;-76
2022/08/07 07:24:20;;;;;;;10.95;9.40;;;;;;;29.00;42.44;99193.97;5031040;28;20428;-76
2022/08/07 07:26:46;;;;;;;10.35;9.27;;;;;;;28.59;42.42;99142.41;5032116;28;20029;-76
2022/08/07 07:29:16;;;;;;;12.82;11.52;;;;;;;28.88;42.32;99179.28;5032214;28;20033;-76
2022/08/07 07:31:45;;;;;;;10.35;9.43;;;;;;;29.06;42.37;99197.38;5032075;28;20017;-76
2022/08/07 07:34:17;;;;;;;10.30;9.32;;;;;;;28.86;42.38;99146.19;5032106;28;20026;-76
2022/08/07 07:36:44;;;;;;;10.60;9.60;;;;;;;28.80;42.16;99129.97;5032254;28;20029;-76
2022/08/07 07:39:12;;;;;;;9.32;8.52;;;;;;;29.14;41.98;99158.56;5032090;28;20040;-76
2022/08/07 07:41:39;;;;;;;9.45;8.65;;;;;;;29.00;41.59;99133.38;5032054;28;20029;-76
2022/08/07 07:44:08;;;;;;;12.65;11.38;;;;;;;29.37;41.17;99181.09;5031951;28;20105;-76
2022/08/07 07:46:36;;;;;;;11.27;10.18;;;;;;;29.54;41.23;99196.75;5030572;28;20037;-76
2022/08/07 07:49:03;;;;;;;9.75;8.82;;;;;;;29.60;40.72;99196.31;5031819;28;20028;-76
2022/08/07 07:51:31;;;;;;;10.88;9.88;;;;;;;29.66;40.54;99189.63;5031856;28;20085;-76
2022/08/07 07:53:57;;;;;;;9.65;8.85;;;;;;;29.63;40.50;99186.72;5031674;28;20509;-76
2022/08/07 07:56:25;;;;;;;8.85;8.15;;;;;;;29.50;40.40;99152.25;5031648;28;20071;-76
2022/08/07 07:58:53;;;;;;;9.43;8.55;;;;;;;29.53;40.57;99166.03;5030376;28;20033;-76
2022/08/07 08:01:20;;;;;;;9.50;8.63;;;;;;;29.72;40.08;99176.69;5031747;28;20030;-76
2022/08/07 08:03:46;;;;;;;9.23;8.43;;;;;;;29.79;39.76;99190.66;5031877;28;20082;-76
2022/08/07 08:06:12;;;;;;;9.07;8.20;;;;;;;29.55;39.74;99143.94;5032198;28;20048;-76
2022/08/07 08:08:40;;;;;;;9.93;9.02;;;;;;;29.88;39.65;99172.47;5031448;28;20022;-76
2022/08/07 08:11:08;;;;;;;8.73;7.93;;;;;;;29.93;39.26;99185.13;5030308;28;20036;-76
2022/08/07 08:13:37;;;;;;;9.07;8.18;;;;;;;29.88;39.21;99183.34;5031385;28;20040;-76
2022/08/07 08:16:04;;;;;;;7.00;6.40;;;;;;;29.88;38.90;99174.38;5031905;28;20032;-76
2022/08/07 08:18:31;;;;;;;7.93;7.28;;;;;;;29.70;38.83;99135.38;5030080;28;20438;-76
2022/08/07 08:21:01;;;;;;;7.22;6.53;;;;;;;30.15;38.07;99174.19;5031488;28;20071;-76
2022/08/07 08:29:03;;;;;;;7.20;6.40;;;;;;;30.35;37.15;99157.25;5031576;28;20164;-76
2022/08/07 08:31:35;;;;;;;6.25;5.70;;;;;;;30.61;36.58;99167.44;5031389;28;20116;-76
2022/08/07 08:34:02;;;;;;;;;;;;;;;30.60;35.66;99152.19;5031811;28;20037;-76
2022/08/07 08:36:30;;;;;;;6.75;5.85;;;;;;;30.89;35.68;99165.97;5031468;28;19994;-76
2022/08/07 08:39:00;;;;;;;6.30;5.70;;;;;;;31.12;35.28;99157.63;5031287;28;20029;-76
2022/08/07 08:41:25;;;;;;;6.55;5.88;;;;;;;31.30;34.91;99156.53;5031312;28;20140;-76
2022/08/07 08:44:18;;;;;;;6.53;5.50;;;;;;;31.44;33.84;99156.31;5032647;28;20179;-76
2022/08/07 08:47:20;;;;;;;6.22;5.63;;;;;;;31.54;34.26;99154.06;5034061;28;20029;-76
2022/08/07 08:49:58;;;;;;;8.15;5.30;;;;;;;31.77;34.05;99149.19;5022462;28;20522;-76
2022/08/07 08:52:31;;;;;;;6.95;5.45;;;;;;;31.95;33.47;99149.09;5033991;28;20029;-76
2022/08/07 08:55:12;;;;;;;6.43;5.90;;;;;;;32.13;33.44;99145.97;5035414;28;20080;-76
2022/08/07 08:57:45;;;;;;;5.97;5.40;;;;;;;32.04;33.32;99112.44;5033965;28;20083;-76
2022/08/07 09:00:11;;;;;;;6.30;5.80;;;;;;;32.14;32.77;99101.13;5035181;28;20033;-76
2022/08/07 09:02:40;;;;;;;7.18;5.75;;;;;;;32.55;32.43;99140.56;5035056;28;20025;-76
2022/08/07 09:05:53;;;;;;;7.28;5.47;;;;;;;32.65;32.29;99131.97;5035025;28;20445;-76
2022/08/07 09:08:26;;;;;;;6.13;5.53;;;;;;;32.71;32.53;99138.84;4938703;29;20420;-76
2022/08/07 09:11:03;;;;;;;6.10;5.00;;;;;;;32.90;31.21;99134.88;5028620;28;20434;-76
2022/08/07 09:13:35;;;;;;;7.47;5.20;;;;;;;33.08;31.02;99142.56;5033424;28;20280;-76
2022/08/07 09:16:22;;;;;;;6.13;4.93;;;;;;;33.24;30.59;99144.66;5034770;28;20410;-77
2022/08/07 09:19:09;;;;;;;5.75;5.13;;;;;;;33.35;29.93;99143.13;5033532;28;20048;-77
2022/08/07 09:21:47;;;;;;;5.80;5.30;;;;;;;33.51;30.13;99144.09;5034706;28;20030;-76
2022/08/07 09:24:38;;;;;;;5.07;4.68;;;;;;;33.71;30.16;99142.41;5034720;28;20022;-76
2022/08/07 09:27:26;;;;;;;5.85;5.35;;;;;;;33.95;29.57;99139.72;4995836;28;20410;-76
2022/08/07 09:29:56;;;;;;;5.70;5.28;;;;;;;33.73;29.52;99132.72;5034401;28;20409;-76
2022/08/07 09:33:03;;;;;;;4.97;4.40;;;;;;;33.72;29.41;99141.28;5034458;28;20017;-76
2022/08/07 09:35:54;;;;;;;5.35;4.85;;;;;;;33.38;29.73;99132.31;5032997;28;20048;-76
2022/08/07 09:38:42;;;;;;;5.45;4.68;;;;;;;33.08;30.45;99137.09;5034393;28;20418;-76
2022/08/07 09:41:27;;;;;;;5.10;4.60;;;;;;;32.57;30.47;99113.69;5033723;28;20399;-76
2022/08/07 09:44:18;;;;;;;5.93;5.05;;;;;;;32.55;30.99;99130.44;5033121;28;20024;-76
2022/08/07 09:46:43;;;;;;;;;;;;;;;32.35;31.29;99124.97;5034660;28;20035;-76
2022/08/07 09:49:33;;;;;;;4.95;4.55;;;;;;;32.06;31.36;99093.78;5034081;28;19913;-76
2022/08/07 09:52:04;;;;;;;5.90;4.90;;;;;;;32.11;31.77;99126.38;5034179;28;20491;-76
2022/08/07 09:54:47;;;;;;;5.60;5.03;;;;;;;31.91;31.54;99119.72;5030585;28;20125;-76
2022/08/07 09:57:43;;;;;;;5.45;4.82;;;;;;;31.86;31.96;99122.63;5033761;28;20022;-76
2022/08/07 10:00:10;;;;;;;6.05;5.47;;;;;;;31.83;32.23;99114.31;5032727;28;20546;-76
2022/08/07 10:03:05;;;;;;;7.38;5.22;;;;;;;31.86;32.07;99103.53;5033832;28;20031;-76
2022/08/07 10:05:54;;;;;;;5.93;5.32;;;;;;;32.11;32.12;99104.53;5032605;28;20045;-76
2022/08/07 10:08:42;;;;;;;7.05;5.15;;;;;;;32.92;30.73;99106.06;5033686;28;20021;-76
2022/08/07 10:11:17;;;;;;;5.93;5.35;;;;;;;33.03;30.95;99101.75;5033703;28;20033;-76
2022/08/07 10:13:55;;;;;;;5.72;4.90;;;;;;;33.08;31.09;99092.53;5033620;28;20022;-76
2022/08/07 10:16:42;;;;;;;5.90;5.30;;;;;;;32.93;30.81;99096.72;5033550;28;20031;-76
2022/08/07 10:19:21;;;;;;;5.75;5.25;;;;;;;32.64;31.10;99103.03;5032522;28;20040;-76
2022/08/07 10:22:37;;;;;;;5.25;4.85;;;;;;;32.22;31.48;99056.56;5033706;28;20036;-76
2022/08/07 10:25:09;;;;;;;8.63;5.65;;;;;;;32.30;31.83;99098.63;5000395;28;20048;-76
2022/08/07 10:27:52;;;;;;;6.07;5.47;;;;;;;32.16;31.09;99098.88;5033499;28;20034;-76
2022/08/07 10:30:30;;;;;;;6.20;5.40;;;;;;;31.73;31.46;99054.63;5033559;28;20155;-76
2022/08/07 10:33:05;;;;;;;5.60;5.03;;;;;;;31.84;31.40;99085.88;5033469;28;20131;-76
2022/08/07 10:35:39;;;;;;;5.78;4.95;;;;;;;31.85;31.72;99090.19;5032175;28;20037;-76
2022/08/07 10:38:19;;;;;;;6.15;5.30;;;;;;;31.93;31.72;99092.06;5032102;28;20025;-76
2022/08/07 10:40:54;;;;;;;5.30;4.85;;;;;;;32.20;31.13;99090.81;5033494;28;20052;-76
2022/08/07 10:43:26;;;;;;;6.60;5.28;;;;;;;32.79;30.38;99085.28;5033314;28;20108;-76
2022/08/07 10:45:58;;;;;;;8.32;6.63;;;;;;;33.25;30.59;99086.06;5033147;28;20041;-76
2022/08/07 10:49:09;;;;;;;6.40;5.80;;;;;;;33.34;29.19;99089.53;5033112;28;20048;-76
2022/08/07 10:51:40;;;;;;;5.90;5.30;;;;;;;33.73;29.11;99082.63;5032822;28;20037;-76
2022/08/07 10:54:15;;;;;;;6.15;5.25;;;;;;;34.05;28.46;99084.44;5032766;28;20034;-76
2022/08/07 10:57:14;;;;;;;6.47;5.88;;;;;;;33.98;29.05;99051.38;5032837;28;20104;-76
2022/08/07 10:59:51;;;;;;;5.65;5.13;;;;;;;34.06;28.97;99082.50;5032889;28;20025;-76
2022/08/07 11:02:43;;;;;;;6.07;5.57;;;;;;;33.73;28.55;99080.69;5032929;28;20029;-76
2022/08/07 11:05:38;;;;;;;6.25;5.65;;;;;;;33.32;29.22;99083.59;5031603;28;20025;-76
2022/08/07 11:08:39;;;;;;;5.82;5.30;;;;;;;33.01;29.39;99081.34;5032055;28;20036;-76
2022/08/07 11:11:14;;;;;;;7.95;5.20;;;;;;;32.81;28.96;99093.94;5029173;28;20041;-76
2022/08/07 11:13:51;;;;;;;6.13;5.38;;;;;;;32.64;29.38;99091.28;5032407;28;20033;-76
2022/08/07 11:16:33;;;;;;;5.85;5.35;;;;;;;32.55;29.60;99078.50;5032328;28;20026;-76
2022/08/07 11:19:08;;;;;;;8.23;6.20;;;;;;;32.44;29.51;99079.25;5032880;28;20033;-76
2022/08/07 11:21:45;;;;;;;8.10;5.93;;;;;;;32.35;29.75;99054.72;5032469;28;20033;-76
2022/08/07 11:24:22;;;;;;;6.78;6.10;;;;;;;32.59;29.50;99045.84;5032433;28;20083;-76
2022/08/07 11:27:17;;;;;;;6.60;6.00;;;;;;;32.76;29.73;99067.56;5032284;28;20017;-76
2022/08/07 11:29:57;;;;;;;6.90;5.80;;;;;;;32.74;29.33;99063.56;5010222;28;20128;-76
2022/08/07 11:32:41;;;;;;;5.95;5.45;;;;;;;32.64;29.65;99058.50;5032210;28;20478;-76
2022/08/07 11:35:17;;;;;;;6.18;5.63;;;;;;;32.45;30.20;99039.84;5032115;28;20061;-76
2022/08/07 11:37:54;;;;;;;6.18;5.63;;;;;;;32.53;30.16;99061.63;5032490;28;20060;-76
2022/08/07 11:40:40;;;;;;;8.15;6.15;;;;;;;32.53;30.40;99042.50;5032110;28;20108;-76
2022/08/07 11:43:24;;;;;;;5.72;5.22;;;;;;;32.84;30.27;99046.78;5032116;28;20509;-76
2022/08/07 11:46:17;;;;;;;6.40;5.80;;;;;;;33.81;29.32;99040.63;5032058;28;20417;-76
2022/08/07 11:49:11;;;;;;;6.05;5.60;;;;;;;34.65;27.74;99029.84;5031871;28;20025;-76
2022/08/07 11:51:45;;;;;;;6.15;5.55;;;;;;;35.38;27.29;99023.97;5032060;28;20490;-76
2022/08/07 11:54:52;;;;;;;6.95;5.78;;;;;;;35.83;26.50;99029.00;5032089;28;20494;-76
2022/08/07 11:57:42;;;;;;;6.80;5.15;;;;;;;36.24;25.56;99023.97;4977209;28;20061;-76